createdAt,value
2022-10-30T00:01:15.115Z,6.50
2022-10-30T00:03:42.281Z,6.60
2022-10-30T00:06:09.489Z,6.60
2022-10-30T00:08:37.060Z,6.50
2022-10-30T00:11:13.626Z,6.50
2022-10-30T00:13:44.145Z,6.40
2022-10-30T00:16:11.601Z,6.40
2022-10-30T00:18:40.093Z,6.50
2022-10-30T00:21:11.724Z,6.40
2022-10-30T00:23:39.745Z,6.30
2022-10-30T00:26:08.077Z,6.30
2022-10-30T00:28:35.575Z,6.30
2022-10-30T00:31:05.384Z,6.30
2022-10-30T00:33:32.952Z,6.30
2022-10-30T00:36:00.924Z,6.40
2022-10-30T00:38:28.221Z,6.40
2022-10-30T00:40:55.420Z,6.30
2022-10-30T00:43:30.643Z,6.30
2022-10-30T00:46:06.383Z,6.40
2022-10-30T00:48:34.865Z,6.40
2022-10-30T00:51:06.849Z,6.40
2022-10-30T00:53:34.397Z,6.30
2022-10-30T00:56:06.767Z,6.30
2022-10-30T00:58:44.950Z,6.30
2022-10-30T01:01:20.133Z,6.30
2022-10-30T01:03:50.497Z,6.40
2022-10-30T01:06:18.674Z,6.30
2022-10-30T01:08:48.021Z,6.30
2022-10-30T01:11:15.403Z,6.20
2022-10-30T01:13:47.054Z,6.20
2022-10-30T01:16:40.366Z,6.20
2022-10-30T01:19:33.655Z,6.20
2022-10-30T01:22:18.792Z,6.20
2022-10-30T01:25:13.176Z,6.20
2022-10-30T01:28:01.414Z,6.10
2022-10-30T01:31:10.743Z,6.10
2022-10-30T01:34:28.105Z,6.10
2022-10-30T01:37:14.464Z,6.10
2022-10-30T01:39:42.092Z,6.00
2022-10-30T01:42:52.052Z,6.00
2022-10-30T01:45:43.788Z,5.80
2022-10-30T01:48:22.810Z,5.90
2022-10-30T01:51:21.876Z,5.90
2022-10-30T01:54:12.464Z,5.80
2022-10-30T01:56:55.225Z,5.80
2022-10-30T01:59:51.140Z,5.80
2022-10-30T02:02:18.956Z,5.80
2022-10-30T02:04:46.475Z,5.80
2022-10-30T02:07:13.862Z,5.80
2022-10-30T02:09:42.104Z,5.80
2022-10-30T02:12:10.487Z,5.70
2022-10-30T02:14:45.187Z,5.70
2022-10-30T02:17:13.379Z,5.70
2022-10-30T02:19:40.532Z,5.70
2022-10-30T02:22:07.961Z,5.70
2022-10-30T02:24:35.139Z,5.60
2022-10-30T02:27:02.391Z,5.70
2022-10-30T02:29:29.893Z,5.60
2022-10-30T02:31:57.091Z,5.60
2022-10-30T02:34:24.256Z,5.70
2022-10-30T02:36:51.499Z,5.70
2022-10-30T02:39:18.752Z,5.70
2022-10-30T02:41:46.037Z,5.60
2022-10-30T02:44:13.412Z,5.70
2022-10-30T02:46:40.727Z,5.70
2022-10-30T02:49:08.040Z,5.60
2022-10-30T02:51:35.210Z,5.60
2022-10-30T02:54:02.363Z,5.60
2022-10-30T02:56:29.754Z,5.60
2022-10-30T02:58:57.378Z,5.50
2022-10-30T03:01:27.872Z,5.60
2022-10-30T03:03:55.388Z,5.60
2022-10-30T03:06:22.748Z,5.60
2022-10-30T03:08:50.040Z,5.50
2022-10-30T03:11:19.799Z,5.40
2022-10-30T03:13:49.199Z,5.40
2022-10-30T03:16:21.435Z,5.40
2022-10-30T03:18:49.081Z,5.50
2022-10-30T03:33:41.827Z,5.30
2022-10-30T03:36:12.456Z,5.30
2022-10-30T03:38:40.482Z,5.40
2022-10-30T03:41:07.799Z,5.30
2022-10-30T03:43:35.271Z,5.20
2022-10-30T09:13:07.521Z,9.80
2022-10-30T09:15:34.748Z,9.90
2022-10-30T09:18:04.550Z,10.00
2022-10-30T09:20:32.284Z,10.00
2022-10-30T09:22:59.669Z,10.10
2022-10-30T09:25:27.287Z,10.20
2022-10-30T09:27:54.526Z,10.40
2022-10-30T09:30:22.422Z,10.50
2022-10-30T09:33:01.488Z,10.50
2022-10-30T09:35:29.768Z,10.60
2022-10-30T09:37:57.943Z,10.70
2022-10-30T09:41:24.432Z,10.70
2022-10-30T09:44:21.511Z,10.80
2022-10-30T09:47:23.323Z,10.90
2022-10-30T09:50:11.926Z,11.10
2022-10-30T09:53:01.392Z,11.20
2022-10-30T09:56:23.735Z,11.30
2022-10-30T09:59:16.633Z,11.50
2022-10-30T10:02:11.070Z,11.50
2022-10-30T10:04:51.862Z,11.50
2022-10-30T10:07:35.642Z,11.70
2022-10-30T10:10:36.783Z,11.70
2022-10-30T10:15:57.399Z,11.80
2022-10-30T10:21:33.202Z,12.00
2022-10-30T10:24:04.346Z,12.00
2022-10-30T10:26:45.472Z,12.00
2022-10-30T10:29:41.490Z,12.10
2022-10-30T10:36:06.122Z,12.30
2022-10-30T10:39:00.185Z,12.40
2022-10-30T10:42:03.794Z,12.40
2022-10-30T10:45:17.314Z,12.40
2022-10-30T10:47:53.202Z,12.50
2022-10-30T10:53:29.369Z,12.90
2022-10-30T10:56:00.934Z,12.90
2022-10-30T10:59:00.854Z,12.90
2022-10-30T11:01:48.835Z,13.00
2022-10-30T11:04:45.492Z,13.10
2022-10-30T11:07:24.145Z,13.20
2022-10-30T11:09:58.371Z,13.40
2022-10-30T11:12:37.069Z,13.40
2022-10-30T11:15:24.136Z,13.60
2022-10-30T11:18:10.312Z,13.80
2022-10-30T11:21:18.207Z,15.20
2022-10-30T11:23:48.380Z,15.50
2022-10-30T11:26:18.528Z,16.40
2022-10-30T11:28:56.286Z,17.10
2022-10-30T11:31:29.564Z,18.20
2022-10-30T11:33:57.072Z,18.30
2022-10-30T11:36:26.417Z,19.50
2022-10-30T11:39:09.082Z,19.60
2022-10-30T11:41:36.632Z,20.00
2022-10-30T11:44:06.540Z,20.20
2022-10-30T11:46:36.486Z,20.50
2022-10-30T11:49:03.849Z,21.00
2022-10-30T11:51:39.488Z,21.20
2022-10-30T11:54:16.007Z,21.20
2022-10-30T11:56:49.866Z,21.30
2022-10-30T11:59:23.828Z,21.40
2022-10-30T12:02:19.337Z,21.20
2022-10-30T12:04:46.813Z,21.30
2022-10-30T12:07:23.107Z,21.40
2022-10-30T12:09:50.908Z,21.20
2022-10-30T12:12:38.886Z,21.50
2022-10-30T12:15:15.257Z,21.60
2022-10-30T12:18:00.329Z,21.70
2022-10-30T12:20:29.269Z,21.80
2022-10-30T12:22:57.959Z,21.80
2022-10-30T12:25:31.012Z,21.70
2022-10-30T12:28:08.197Z,21.90
2022-10-30T12:30:49.770Z,21.60
2022-10-30T12:33:28.883Z,21.00
2022-10-30T12:36:18.185Z,20.70
2022-10-30T12:38:57.510Z,20.90
2022-10-30T12:41:59.570Z,20.90
2022-10-30T12:44:51.864Z,21.30
2022-10-30T12:47:29.042Z,21.20
2022-10-30T12:50:06.902Z,21.10
2022-10-30T12:52:46.630Z,20.40
2022-10-30T12:55:37.022Z,19.50
2022-10-30T12:58:39.998Z,18.80
2022-10-30T13:04:15.719Z,17.70
2022-10-30T13:07:03.290Z,17.30
2022-10-30T13:10:20.257Z,16.90
2022-10-30T13:12:52.723Z,16.60
2022-10-30T13:15:31.014Z,16.30
2022-10-30T13:18:16.378Z,16.00
2022-10-30T13:20:57.529Z,15.80
2022-10-30T13:23:35.681Z,15.60
2022-10-30T13:26:31.651Z,15.60
2022-10-30T13:29:23.390Z,15.40
2022-10-30T13:32:34.158Z,15.30
2022-10-30T13:35:44.306Z,15.20
2022-10-30T13:38:45.171Z,15.00
2022-10-30T13:41:31.670Z,14.90
2022-10-30T13:44:34.968Z,14.80
2022-10-30T13:47:32.588Z,14.70
2022-10-30T13:50:51.471Z,14.60
2022-10-30T13:53:28.097Z,14.40
2022-10-30T13:55:57.382Z,14.30
2022-10-30T13:58:44.182Z,14.20
2022-10-30T14:01:46.028Z,14.10
2022-10-30T14:04:32.877Z,14.10
2022-10-30T14:07:38.376Z,14.10
2022-10-30T14:10:20.817Z,14.00
2022-10-30T14:12:57.310Z,14.00
2022-10-30T14:18:13.717Z,13.90
2022-10-30T14:20:52.651Z,13.80
2022-10-30T14:23:33.121Z,13.80
2022-10-30T14:26:03.570Z,13.70
2022-10-30T14:28:41.796Z,13.60
2022-10-30T14:31:18.609Z,13.60
2022-10-30T14:33:51.597Z,13.50
2022-10-30T14:36:23.169Z,13.50
2022-10-30T14:39:09.886Z,13.50
2022-10-30T14:42:19.740Z,13.40
2022-10-30T14:45:22.388Z,13.30
2022-10-30T14:48:34.882Z,13.30
2022-10-30T14:51:33.640Z,13.20
2022-10-30T14:54:06.290Z,13.20
2022-10-30T14:56:48.550Z,13.20
2022-10-30T14:59:15.594Z,13.20
2022-10-30T15:01:51.555Z,13.10
2022-10-30T15:07:31.778Z,12.90
2022-10-30T15:10:16.319Z,12.80
2022-10-30T15:13:21.434Z,12.70
2022-10-30T15:16:07.915Z,12.60
2022-10-30T15:18:35.280Z,12.60
2022-10-30T15:21:07.192Z,12.50
2022-10-30T15:23:37.552Z,12.50
2022-10-30T15:26:20.058Z,12.40
2022-10-30T15:31:24.074Z,12.30
2022-10-30T15:33:52.879Z,12.30
2022-10-30T15:36:40.424Z,12.20
2022-10-30T15:39:18.835Z,12.10
2022-10-30T15:42:01.945Z,12.10
2022-10-30T15:44:41.457Z,12.00
2022-10-30T15:47:19.875Z,11.90
2022-10-30T15:52:28.659Z,11.80
2022-10-30T15:55:07.826Z,11.60
2022-10-30T15:58:02.874Z,11.60
2022-10-30T16:00:36.104Z,11.50
2022-10-30T16:03:18.131Z,11.40
2022-10-30T16:05:46.029Z,11.30
2022-10-30T16:08:21.008Z,11.30
2022-10-30T16:10:52.611Z,11.30
2022-10-30T16:13:29.457Z,11.20
2022-10-30T16:15:57.278Z,11.20
2022-10-30T16:18:36.426Z,11.10
2022-10-30T16:21:09.488Z,11.10
2022-10-30T16:23:47.394Z,11.00
2022-10-30T16:26:24.588Z,11.00
2022-10-30T16:28:52.085Z,11.00
2022-10-30T16:31:20.494Z,10.90
2022-10-30T16:36:18.480Z,10.80
2022-10-30T16:38:49.657Z,10.80
2022-10-30T16:41:24.167Z,10.70
2022-10-30T16:44:17.319Z,10.70
2022-10-30T16:46:57.315Z,10.50
2022-10-30T16:49:30.585Z,10.50
2022-10-30T16:52:04.217Z,10.40
2022-10-30T16:54:49.020Z,10.30
2022-10-30T16:57:30.209Z,10.20
2022-10-30T17:00:00.859Z,10.30
2022-10-30T17:02:33.857Z,10.20
2022-10-30T17:05:19.576Z,10.10
2022-10-30T17:08:03.863Z,10.00
2022-10-30T17:10:55.043Z,10.00
2022-10-30T17:13:39.366Z,10.00
2022-10-30T17:16:26.554Z,9.90
2022-10-30T17:21:41.108Z,9.70
2022-10-30T17:24:41.944Z,9.70
2022-10-30T17:27:50.526Z,9.70
2022-10-30T17:30:34.057Z,9.60
2022-10-30T17:33:37.560Z,9.60
2022-10-30T17:36:06.674Z,9.50
2022-10-30T17:38:34.083Z,9.50
2022-10-30T17:41:02.476Z,9.50
2022-10-30T17:43:52.039Z,9.50
2022-10-30T17:46:20.574Z,9.40
2022-10-30T17:48:48.642Z,9.40
2022-10-30T17:51:18.225Z,9.40
2022-10-30T17:53:50.156Z,9.30
2022-10-30T17:56:31.421Z,9.30
2022-10-30T17:58:58.654Z,9.30
2022-10-30T18:01:27.564Z,9.20
2022-10-30T18:03:56.239Z,9.30
2022-10-30T18:06:27.324Z,9.20
2022-10-30T18:08:55.281Z,9.20
2022-10-30T18:11:24.871Z,9.20
2022-10-30T18:16:23.339Z,9.20
2022-10-30T18:18:51.529Z,9.20
2022-10-30T18:21:22.710Z,9.20
2022-10-30T18:23:53.115Z,9.10
2022-10-30T18:26:26.991Z,9.00
2022-10-30T18:28:54.974Z,9.00
2022-10-30T18:31:25.823Z,9.00
2022-10-30T18:33:53.234Z,8.90
2022-10-30T18:36:24.623Z,8.90
2022-10-30T18:38:52.787Z,8.90
2022-10-30T18:41:36.738Z,8.80
2022-10-30T18:44:04.721Z,8.80
2022-10-30T18:46:33.896Z,8.70
2022-10-30T18:49:01.493Z,8.70
2022-10-30T18:51:29.542Z,8.70
2022-10-30T18:53:57.287Z,8.80
2022-10-30T18:56:28.001Z,8.70
2022-10-30T18:59:00.753Z,8.60
2022-10-30T19:01:31.708Z,8.50
2022-10-30T19:03:59.286Z,8.50
2022-10-30T19:06:26.917Z,8.50
2022-10-30T19:08:54.315Z,8.60
2022-10-30T19:11:24.881Z,8.50
2022-10-30T19:13:54.525Z,8.50
2022-10-30T19:16:22.720Z,8.40
2022-10-30T19:18:49.923Z,8.40
2022-10-30T19:23:50.503Z,8.30
2022-10-30T19:26:18.033Z,8.20
2022-10-30T19:28:46.720Z,8.20
2022-10-30T19:31:18.203Z,8.20
2022-10-30T19:33:52.958Z,8.20
2022-10-30T19:36:34.951Z,8.20
2022-10-30T19:39:14.173Z,8.10
2022-10-30T19:41:41.641Z,8.00
2022-10-30T19:44:09.365Z,8.00
2022-10-30T19:46:37.539Z,8.00
2022-10-30T19:49:17.979Z,8.00
2022-10-30T19:51:45.247Z,8.00
2022-10-30T19:54:12.584Z,8.10
2022-10-30T19:56:39.733Z,8.10
2022-10-30T19:59:13.403Z,8.00
2022-10-30T20:01:40.769Z,8.10
2022-10-30T20:04:08.011Z,8.10
2022-10-30T20:06:35.175Z,8.10
2022-10-30T20:09:02.310Z,8.00
2022-10-30T20:11:29.713Z,8.00
2022-10-30T20:13:56.841Z,8.00
2022-10-30T20:16:24.266Z,8.00
2022-10-30T20:18:51.490Z,8.00
2022-10-30T20:21:20.276Z,7.90
2022-10-30T20:23:47.544Z,7.70
2022-10-30T20:26:25.234Z,7.70
2022-10-30T20:28:53.502Z,7.70
2022-10-30T20:31:21.594Z,7.70
2022-10-30T20:33:48.846Z,7.70
2022-10-30T20:36:16.043Z,7.70
2022-10-30T20:38:43.402Z,7.60
2022-10-30T20:41:25.541Z,7.60
2022-10-30T20:43:52.811Z,7.60
2022-10-30T20:46:21.550Z,7.60
2022-10-30T20:48:49.179Z,7.60
2022-10-30T20:51:16.586Z,7.60
2022-10-30T20:53:43.825Z,7.70
2022-10-30T20:56:11.082Z,7.70
2022-10-30T20:58:38.508Z,7.60
2022-10-30T21:01:06.156Z,7.60
2022-10-30T21:03:33.484Z,7.60
2022-10-30T21:06:02.395Z,7.50
2022-10-30T21:08:31.561Z,7.50
2022-10-30T21:11:02.373Z,7.50
2022-10-30T21:13:29.946Z,7.50
2022-10-30T21:16:02.652Z,7.40
2022-10-30T21:18:30.358Z,7.40
2022-10-30T21:21:08.930Z,7.40
2022-10-30T21:23:36.151Z,7.30
2022-10-30T21:26:08.009Z,7.30
2022-10-30T21:28:35.210Z,7.20
2022-10-30T21:31:10.979Z,7.30
2022-10-30T21:33:38.912Z,7.30
2022-10-30T21:36:15.357Z,7.20
2022-10-30T21:38:44.256Z,7.20
2022-10-30T21:41:17.123Z,7.20
2022-10-30T21:43:50.179Z,7.20
2022-10-30T21:46:17.966Z,7.20
2022-10-30T21:48:45.093Z,7.20
2022-10-30T21:51:25.102Z,7.10
2022-10-30T21:53:54.118Z,7.00
2022-10-30T21:56:25.913Z,7.00
2022-10-30T21:58:55.518Z,7.00
2022-10-30T22:01:29.211Z,7.00
2022-10-30T22:04:00.368Z,7.00
2022-10-30T22:06:29.092Z,6.90
2022-10-30T22:08:57.651Z,6.90
2022-10-30T22:11:28.545Z,6.80
2022-10-30T22:13:59.188Z,6.80
2022-10-30T22:16:28.329Z,6.80
2022-10-30T22:18:57.016Z,6.80
2022-10-30T22:21:25.151Z,6.80
2022-10-30T22:23:52.353Z,6.80
2022-10-30T22:26:22.541Z,6.80
2022-10-30T22:28:54.619Z,6.80
2022-10-30T22:31:24.890Z,6.70
2022-10-30T22:33:53.076Z,6.70
2022-10-30T22:36:25.425Z,6.60
2022-10-30T22:39:00.379Z,6.60
2022-10-30T22:41:34.405Z,6.60
2022-10-30T22:44:06.555Z,6.70
2022-10-30T22:46:33.960Z,6.80
2022-10-30T22:49:01.123Z,6.90
2022-10-30T22:51:31.289Z,6.90
2022-10-30T22:54:04.573Z,6.90
2022-10-30T22:56:34.917Z,6.80
2022-10-30T22:59:05.943Z,6.70
2022-10-30T23:01:36.154Z,6.70
2022-10-30T23:04:05.559Z,6.70
2022-10-30T23:06:35.231Z,6.70
2022-10-30T23:09:08.015Z,6.80
2022-10-30T23:11:35.778Z,6.80
2022-10-30T23:14:03.467Z,6.90
2022-10-30T23:16:30.943Z,6.90
2022-10-30T23:19:00.637Z,6.80
2022-10-30T23:21:30.987Z,6.80
2022-10-30T23:23:59.261Z,6.70
2022-10-30T23:26:33.319Z,6.70
2022-10-30T23:29:01.899Z,6.60
2022-10-30T23:31:39.429Z,6.60
2022-10-30T23:34:10.916Z,6.50
2022-10-30T23:36:38.758Z,6.40
2022-10-30T23:39:16.600Z,6.40
2022-10-30T23:41:44.708Z,6.40
2022-10-30T23:44:15.520Z,6.40
2022-10-30T23:46:42.767Z,6.30
2022-10-30T23:49:09.896Z,6.40
2022-10-30T23:51:37.215Z,6.40
2022-10-30T23:54:05.453Z,6.50
2022-10-30T23:56:32.652Z,6.50
2022-10-30T23:59:00.798Z,6.60
